Fairchild Air Force Base

Airport
ICAO code: 
KSKA
Summary
ICAO Region: 
NAM
Territory: 
Location: 
Spokane, Washington,
Coordinates: 
Aerial View: 
47° 36' 54" N, 117° 39' 20" W
Airport CFIT: 
Altimeter Temperature Error Correction
Airport WX: 
Mountain Waves
Metar
Observation
KSKA 020258Z AUTO 17011KT 10SM BKN240 11/11 A3000 RMK AO2 SLP163 T01070105 50000 $
Station
Fairchild Air Force Base
Date/Time
2021-12-02 02:58:00
Wind direction
170°
Wind speed
11 kts
Lowest cloud amount
broken clouds
Temperature
10.7°C
Dew point
10.5°C
Humidity
98%
Weather condition
n/a

Description

Fairchild Air Force Base is a United States Air Force installation located approximately 20 km southwest of the central business district of Spokane, Washington.

Climatology

Dry-summer, humid contiental climate (Köppen climate classification Dsb), with long, snowy winters and warm, dry summers.

Runways

Designator Length Width Surface Rops
5/23 4237 61 CON Yes/Yes
Airport map: 
Aerial View: 

SKYbrary Partners:

Safety knowledge contributed by: